Time;durP1;ratioP1;P1;durP2;ratioP2;P2;SDS_P1;SDS_P2;PMS_P1;PMS_P2;Temp;Humidity;BMP_temperature;BMP_pressure;BME280_temperature;BME280_humidity;BME280_pressure;Samples;Min_cycle;Max_cycle;Signal;HPM_P1;HPM_P2
2024/03/30 00:02:23;;;;;;;7.80;4.47;;;;;;;16.43;67.10;99923.63;5095082;28;20039;-62
2024/03/30 00:04:48;;;;;;;10.00;4.63;;;;;;;16.40;66.78;99925.88;5096692;28;20024;-62
2024/03/30 00:07:14;;;;;;;10.82;3.83;;;;;;;16.33;66.85;99916.97;5093918;28;20384;-63
2024/03/30 00:09:39;;;;;;;9.15;3.97;;;;;;;16.26;67.28;99916.94;5094992;28;20035;-65
2024/03/30 00:12:05;;;;;;;8.05;3.72;;;;;;;16.29;67.05;99916.56;5094801;28;20362;-65
2024/03/30 00:14:31;;;;;;;9.00;4.18;;;;;;;16.35;66.55;99918.44;5095682;28;20338;-62
2024/03/30 00:16:56;;;;;;;7.95;3.40;;;;;;;16.35;66.03;99918.44;5095163;28;20067;-63
2024/03/30 00:19:22;;;;;;;9.65;3.63;;;;;;;16.29;66.55;99920.06;5095972;28;20257;-63
2024/03/30 00:21:47;;;;;;;6.30;3.58;;;;;;;16.32;65.31;99932.19;5094254;28;20046;-62
2024/03/30 00:24:13;;;;;;;7.95;3.80;;;;;;;16.12;65.36;99929.38;5096718;28;20045;-63
2024/03/30 00:26:38;;;;;;;12.68;4.68;;;;;;;15.87;64.87;99928.13;5094359;28;20039;-63
2024/03/30 00:29:03;;;;;;;12.73;4.40;;;;;;;15.94;65.16;99929.00;5096750;28;20109;-62
2024/03/30 00:31:31;;;;;;;7.55;4.05;;;;;;;16.03;65.70;99938.53;5095174;28;20353;-65
2024/03/30 00:33:56;;;;;;;11.82;3.92;;;;;;;16.10;65.69;99935.94;5096884;28;20028;-65
2024/03/30 00:36:22;;;;;;;7.57;3.92;;;;;;;16.08;63.68;99944.13;5095190;28;20038;-62
2024/03/30 00:38:48;;;;;;;9.07;3.55;;;;;;;16.08;64.26;99930.78;5096750;28;20521;-63
2024/03/30 00:41:14;;;;;;;7.35;3.65;;;;;;;16.14;64.77;99931.84;5095881;28;20319;-63
2024/03/30 00:43:39;;;;;;;6.07;3.17;;;;;;;16.12;64.95;99929.38;5095836;28;20103;-63
2024/03/30 00:46:05;;;;;;;6.88;3.08;;;;;;;16.08;64.01;99941.47;5095934;28;20040;-63
2024/03/30 00:48:30;;;;;;;6.18;3.08;;;;;;;16.09;63.98;99948.47;5096067;28;20031;-65
2024/03/30 00:50:56;;;;;;;7.35;3.03;;;;;;;16.14;63.81;99947.88;5095597;28;20418;-64
2024/03/30 00:53:21;;;;;;;9.85;3.67;;;;;;;16.12;63.68;99949.91;5096272;28;20028;-63
2024/03/30 00:55:55;;;;;;;5.22;3.30;;;;;;;16.17;63.36;99942.97;5097231;28;20032;-62
2024/03/30 00:58:20;;;;;;;6.50;3.22;;;;;;;16.18;62.90;99949.97;5093999;28;20366;-63
2024/03/30 01:00:46;;;;;;;7.72;3.50;;;;;;;16.14;62.76;99945.22;5096419;28;20047;-63
2024/03/30 01:03:11;;;;;;;8.27;3.92;;;;;;;16.12;62.05;99949.91;5095661;28;20032;-63
2024/03/30 01:05:37;;;;;;;11.18;3.92;;;;;;;16.06;62.08;99943.50;5096811;28;20044;-62
2024/03/30 01:08:03;;;;;;;7.53;3.72;;;;;;;16.12;61.62;99934.72;5096098;28;20028;-63
2024/03/30 01:10:28;;;;;;;6.80;3.72;;;;;;;16.14;61.31;99934.53;5096809;28;20334;-62
2024/03/30 01:12:54;;;;;;;4.65;3.17;;;;;;;15.97;61.88;99933.97;5096006;28;20031;-62
2024/03/30 01:15:20;;;;;;;8.70;4.18;;;;;;;15.98;61.36;99932.94;5096675;28;20040;-63
2024/03/30 01:17:46;;;;;;;7.95;3.50;;;;;;;16.00;60.82;99932.75;5095388;28;20036;-66
2024/03/30 01:20:12;;;;;;;8.32;3.33;;;;;;;15.98;60.44;99938.28;5096141;28;20058;-65
2024/03/30 01:22:38;;;;;;;6.20;3.50;;;;;;;15.87;60.70;99946.81;5094895;28;20388;-63
2024/03/30 01:25:04;;;;;;;5.38;3.35;;;;;;;15.84;61.61;99942.69;5097957;28;20051;-62
2024/03/30 01:27:30;;;;;;;9.00;3.90;;;;;;;15.85;62.06;99935.50;5099975;28;20143;-63
2024/03/30 01:29:59;;;;;;;5.20;3.42;;;;;;;15.75;61.06;99943.84;5099316;28;20040;-63
2024/03/30 01:32:25;;;;;;;6.88;3.45;;;;;;;15.60;61.39;99946.56;5099409;28;20115;-63
2024/03/30 01:34:51;;;;;;;7.18;3.63;;;;;;;15.62;61.79;99941.03;5099694;28;20039;-63
2024/03/30 01:37:16;;;;;;;7.30;3.65;;;;;;;15.57;61.77;99941.56;5101074;28;20322;-65
2024/03/30 01:39:42;;;;;;;5.22;3.50;;;;;;;15.45;61.59;99948.38;5098703;28;20052;-65
2024/03/30 01:42:07;;;;;;;10.13;4.00;;;;;;;15.28;62.97;99942.44;5099644;28;20047;-63
2024/03/30 01:44:33;;;;;;;6.75;3.58;;;;;;;15.31;63.63;99941.25;5098914;28;20348;-63
2024/03/30 01:46:58;;;;;;;6.80;3.83;;;;;;;15.37;63.95;99948.50;5099397;28;20031;-63
2024/03/30 01:49:24;;;;;;;8.27;4.40;;;;;;;15.28;64.42;99944.28;5099242;28;20109;-62
2024/03/30 01:51:50;;;;;;;10.18;4.38;;;;;;;15.37;64.37;99942.34;5099544;28;20036;-63
2024/03/30 01:54:19;;;;;;;10.68;4.70;;;;;;;15.48;63.29;99945.34;5098946;28;20051;-65
2024/03/30 01:56:45;;;;;;;11.23;3.97;;;;;;;15.34;63.98;99943.53;5098579;28;20223;-63
2024/03/30 01:59:10;;;;;;;6.13;3.63;;;;;;;15.30;61.81;99953.75;5098173;28;20366;-63
2024/03/30 02:01:42;;;;;;;5.80;3.55;;;;;;;15.17;61.08;99958.94;5098462;28;20063;-63
2024/03/30 02:04:08;;;;;;;6.45;3.35;;;;;;;14.97;61.85;99963.19;5098539;28;20381;-63
2024/03/30 02:06:34;;;;;;;5.90;3.85;;;;;;;14.73;62.40;99964.31;5098852;28;20115;-63
2024/03/30 02:09:00;;;;;;;10.98;4.88;;;;;;;14.68;64.38;99958.69;5098997;28;20050;-62
2024/03/30 02:11:25;;;;;;;7.40;4.35;;;;;;;14.68;63.91;99962.19;5098594;28;20044;-62
2024/03/30 02:13:51;;;;;;;7.05;3.95;;;;;;;14.65;64.78;99959.06;5100048;28;20035;-62
2024/03/30 02:16:18;;;;;;;8.98;4.72;;;;;;;14.78;65.02;99953.09;5097115;28;20357;-63
2024/03/30 02:18:44;;;;;;;8.20;3.97;;;;;;;14.92;64.60;99957.59;5099866;28;20028;-63
2024/03/30 02:21:10;;;;;;;7.90;4.00;;;;;;;14.87;63.51;99970.66;5096200;28;20039;-62
2024/03/30 02:23:35;;;;;;;7.78;3.70;;;;;;;15.00;63.48;99970.81;5099423;28;20024;-65
2024/03/30 02:26:01;;;;;;;8.60;3.75;;;;;;;15.10;63.27;99971.38;5098905;28;20050;-63
2024/03/30 02:28:29;;;;;;;7.00;3.60;;;;;;;15.05;63.20;99975.59;5098396;28;20234;-63
2024/03/30 02:30:56;;;;;;;8.50;4.07;;;;;;;15.00;63.99;99968.97;5098210;28;20325;-62
2024/03/30 02:33:22;;;;;;;7.45;4.22;;;;;;;15.06;64.40;99974.59;5098768;28;20064;-62
2024/03/30 02:35:49;;;;;;;12.55;4.38;;;;;;;15.19;63.34;99970.25;5097211;28;20035;-63
2024/03/30 02:38:15;;;;;;;9.43;4.30;;;;;;;15.19;62.99;99972.09;5098334;28;20039;-63
2024/03/30 02:40:53;;;;;;;40.53;14.35;;;;;;;15.13;63.43;99970.16;5097507;28;20048;-65
2024/03/30 02:43:19;;;;;;;16.80;7.85;;;;;;;15.14;63.57;99980.66;5098292;28;20027;-63
2024/03/30 02:45:44;;;;;;;9.43;5.07;;;;;;;15.20;63.33;99971.06;5098377;28;20040;-63
2024/03/30 02:48:10;;;;;;;9.02;4.32;;;;;;;15.34;62.93;99976.38;5097980;28;20055;-63
2024/03/30 02:50:35;;;;;;;6.93;4.55;;;;;;;15.37;63.08;99977.84;5097609;28;20086;-62
2024/03/30 02:53:01;;;;;;;10.52;4.20;;;;;;;15.36;63.12;99970.03;5097389;28;20066;-63
2024/03/30 02:55:26;;;;;;;10.52;5.28;;;;;;;15.34;62.66;99984.38;5098111;28;20234;-62
2024/03/30 02:57:52;;;;;;;10.63;4.80;;;;;;;15.18;63.66;99981.94;5096579;28;20077;-64
2024/03/30 03:00:17;;;;;;;12.13;5.97;;;;;;;15.19;63.86;99993.44;5098980;28;20054;-65
2024/03/30 03:02:43;;;;;;;13.10;5.45;;;;;;;15.16;63.79;99996.47;5095781;28;20074;-63
2024/03/30 03:05:08;;;;;;;13.57;5.65;;;;;;;14.98;64.48;99991.50;5098583;28;20219;-62
2024/03/30 03:07:34;;;;;;;9.10;5.72;;;;;;;14.83;65.50;99988.84;5097542;28;20385;-63
2024/03/30 03:09:59;;;;;;;9.57;5.28;;;;;;;14.91;65.25;99996.75;5098408;28;20024;-63
2024/03/30 03:12:25;;;;;;;11.77;6.18;;;;;;;14.99;64.87;100002.00;5097754;28;20084;-63
2024/03/30 03:14:50;;;;;;;15.23;6.80;;;;;;;14.96;64.56;99996.19;5097775;28;20036;-62
2024/03/30 03:17:16;;;;;;;14.15;6.57;;;;;;;14.96;64.70;99998.88;5097704;28;20238;-62
2024/03/30 03:19:41;;;;;;;13.45;5.80;;;;;;;14.97;64.61;99997.84;5098204;28;20326;-63
2024/03/30 03:22:07;;;;;;;31.98;12.93;;;;;;;14.99;64.59;99999.31;5097057;28;20044;-62
2024/03/30 03:24:32;;;;;;;10.52;5.15;;;;;;;14.86;64.13;99987.66;5097469;28;20224;-63
2024/03/30 03:26:58;;;;;;;11.75;5.55;;;;;;;14.63;65.74;99985.91;5098822;28;20028;-62
2024/03/30 03:29:23;;;;;;;9.60;5.47;;;;;;;14.59;65.93;99981.94;5094595;28;20063;-65
2024/03/30 03:31:49;;;;;;;22.55;7.97;;;;;;;14.46;66.91;99986.22;5095815;28;20050;-62
2024/03/30 03:34:14;;;;;;;17.52;6.32;;;;;;;14.18;68.38;99981.44;5087008;28;20333;-63
2024/03/30 03:36:41;;;;;;;20.83;8.02;;;;;;;14.27;68.10;99996.34;5088723;28;20036;-62
2024/03/30 03:39:07;;;;;;;13.32;7.25;;;;;;;14.38;67.03;100003.88;5091628;28;20068;-63
2024/03/30 03:41:32;;;;;;;12.85;6.53;;;;;;;14.45;67.35;100011.19;5095874;28;20074;-62
2024/03/30 03:43:58;;;;;;;11.48;5.95;;;;;;;14.47;67.33;100003.84;5098581;28;20032;-63
2024/03/30 03:46:23;;;;;;;10.45;5.18;;;;;;;14.53;66.83;100003.94;5094719;28;20032;-65
2024/03/30 03:48:49;;;;;;;10.30;4.65;;;;;;;14.60;64.63;100009.41;5097913;28;20240;-63
2024/03/30 03:51:15;;;;;;;10.32;4.80;;;;;;;14.57;63.43;100015.09;5096327;28;20089;-63
2024/03/30 03:53:41;;;;;;;10.57;4.57;;;;;;;14.50;62.97;100011.47;5098069;28;20304;-63
2024/03/30 03:56:07;;;;;;;11.65;4.88;;;;;;;14.54;64.02;100013.59;5095661;28;20039;-62
2024/03/30 03:58:32;;;;;;;11.00;4.68;;;;;;;14.45;63.51;100016.53;5096669;28;20200;-63
2024/03/30 04:01:06;;;;;;;12.32;4.60;;;;;;;14.46;63.58;100005.69;5096552;28;20241;-63
2024/03/30 04:03:32;;;;;;;11.02;4.68;;;;;;;14.41;63.57;100004.53;5096103;28;20032;-62
2024/03/30 04:06:07;;;;;;;10.60;4.38;;;;;;;14.46;63.44;100015.50;5096407;28;20067;-65
2024/03/30 04:08:33;;;;;;;10.13;4.10;;;;;;;14.50;64.07;100014.97;5097018;28;20125;-63
2024/03/30 04:11:05;;;;;;;6.97;3.95;;;;;;;14.38;62.96;100009.22;5096082;28;20334;-62
2024/03/30 04:13:32;;;;;;;8.10;4.05;;;;;;;14.39;63.42;100007.38;5096623;28;20035;-62
2024/03/30 04:16:07;;;;;;;10.55;5.15;;;;;;;14.18;65.51;99985.94;5096658;28;20093;-62
2024/03/30 04:18:33;;;;;;;15.57;4.85;;;;;;;14.31;66.65;100007.44;5096616;28;20400;-63
2024/03/30 04:20:59;;;;;;;12.40;5.53;;;;;;;14.37;66.51;100012.06;5097107;28;20024;-64
2024/03/30 04:23:31;;;;;;;10.68;4.25;;;;;;;14.29;65.91;100006.81;5096229;28;20036;-63
2024/03/30 04:26:04;;;;;;;24.35;8.23;;;;;;;14.30;66.93;100008.47;5097586;28;20334;-62
2024/03/30 04:28:30;;;;;;;14.20;5.90;;;;;;;14.26;67.56;100001.84;5095557;28;20055;-63
2024/03/30 04:30:59;;;;;;;19.90;7.28;;;;;;;14.38;67.05;100003.06;5096959;28;20077;-62
2024/03/30 04:33:25;;;;;;;14.25;5.72;;;;;;;14.44;65.57;100005.03;5095159;28;20035;-65
2024/03/30 04:35:52;;;;;;;20.92;6.18;;;;;;;14.39;65.85;100008.22;5097190;28;20436;-65
2024/03/30 04:38:17;;;;;;;27.00;6.65;;;;;;;14.42;66.25;100003.53;5094868;28;20028;-62
2024/03/30 04:40:43;;;;;;;17.48;6.30;;;;;;;14.33;66.28;100000.94;5096980;28;20040;-64
2024/03/30 04:43:08;;;;;;;16.77;6.40;;;;;;;14.27;66.64;99999.00;5096301;28;20032;-63
2024/03/30 04:45:34;;;;;;;15.45;5.15;;;;;;;14.23;67.73;100005.69;5096205;28;20040;-62
2024/03/30 04:48:00;;;;;;;19.63;5.10;;;;;;;14.25;68.22;100002.84;5094811;28;20271;-63
2024/03/30 04:50:25;;;;;;;17.20;5.25;;;;;;;14.35;67.23;100006.91;5095516;28;20280;-65
2024/03/30 04:52:50;;;;;;;15.65;4.60;;;;;;;14.33;67.05;100006.25;5095889;28;20062;-64
2024/03/30 04:55:16;;;;;;;16.17;4.70;;;;;;;14.19;66.64;100017.72;5096093;28;20032;-63
2024/03/30 04:57:41;;;;;;;17.70;5.13;;;;;;;14.28;67.01;100018.47;5096283;28;20073;-63
2024/03/30 05:00:07;;;;;;;20.52;6.32;;;;;;;14.32;68.06;100020.59;5100583;28;20204;-63
2024/03/30 05:02:33;;;;;;;73.28;10.57;;;;;;;14.48;68.74;100022.31;5099753;28;20044;-63
2024/03/30 05:04:59;;;;;;;30.15;7.38;;;;;;;14.69;69.46;100024.31;5101138;28;20036;-62
2024/03/30 05:07:25;;;;;;;15.65;5.75;;;;;;;14.85;69.85;100031.31;5099596;28;20040;-62
2024/03/30 05:09:50;;;;;;;18.95;6.22;;;;;;;14.92;69.82;100038.41;5101222;28;20089;-62
2024/03/30 05:12:15;;;;;;;13.32;5.43;;;;;;;15.05;69.80;100039.59;5099554;28;20044;-64
2024/03/30 05:14:41;;;;;;;14.63;5.00;;;;;;;15.04;71.10;100038.78;5100878;28;20032;-64
2024/03/30 05:17:06;;;;;;;12.73;5.05;;;;;;;15.06;71.31;100043.94;5098676;28;20047;-62
2024/03/30 05:22:16;;;;;;;;;;;;;;;15.22;69.55;100039.22;5100866;28;20071;-62
2024/03/30 05:24:41;;;;;;;12.98;4.85;;;;;;;15.30;69.65;100039.13;5100342;28;19920;-62
2024/03/30 05:27:07;;;;;;;8.52;4.75;;;;;;;15.32;70.41;100041.63;5099009;28;20062;-63
2024/03/30 05:29:32;;;;;;;13.73;5.50;;;;;;;15.49;69.95;100032.41;5099880;28;20210;-62
2024/03/30 05:31:58;;;;;;;13.73;4.97;;;;;;;15.57;70.80;100039.47;5098913;28;20052;-63
2024/03/30 05:34:23;;;;;;;16.45;5.68;;;;;;;15.54;71.52;100035.31;5099236;28;20061;-62
2024/03/30 05:36:49;;;;;;;14.00;6.47;;;;;;;15.11;72.18;100036.19;5100867;28;20047;-62
2024/03/30 05:39:14;;;;;;;16.88;5.55;;;;;;;15.12;72.56;100038.69;5099174;28;20048;-63
2024/03/30 05:41:40;;;;;;;10.80;5.65;;;;;;;15.12;73.47;100033.34;5100813;28;20344;-65
2024/03/30 05:44:05;;;;;;;9.07;5.63;;;;;;;15.13;73.94;100031.50;5099291;28;20256;-63
2024/03/30 05:46:30;;;;;;;10.85;6.00;;;;;;;15.31;75.10;100029.28;5100575;28;20032;-63
2024/03/30 05:48:56;;;;;;;12.30;5.25;;;;;;;15.54;75.23;100034.50;5098650;28;20032;-63
2024/03/30 05:51:21;;;;;;;17.58;5.90;;;;;;;15.79;72.80;100043.91;5099414;28;20480;-64
2024/03/30 05:53:47;;;;;;;16.95;6.45;;;;;;;16.10;71.56;100042.78;5098301;28;20318;-66
2024/03/30 05:56:13;;;;;;;13.02;6.13;;;;;;;16.35;70.96;100040.53;5099569;28;20036;-63
2024/03/30 05:58:39;;;;;;;18.38;5.72;;;;;;;16.65;69.18;100050.13;5099061;28;20378;-64
2024/03/30 06:01:04;;;;;;;14.68;6.35;;;;;;;16.98;67.47;100054.88;5098651;28;20322;-62
2024/03/30 06:03:30;;;;;;;13.43;6.80;;;;;;;17.17;65.99;100046.97;5099623;28;20737;-63
2024/03/30 06:05:55;;;;;;;13.55;6.93;;;;;;;17.40;64.39;100046.66;5098967;28;20252;-63
2024/03/30 06:08:21;;;;;;;13.00;7.55;;;;;;;17.66;63.08;100047.81;5098573;28;20035;-63
2024/03/30 06:10:46;;;;;;;18.67;10.63;;;;;;;17.88;62.24;100048.56;5097957;28;20389;-64
2024/03/30 06:13:11;;;;;;;30.60;17.85;;;;;;;18.13;61.31;100052.31;5100111;28;20036;-63
2024/03/30 06:15:37;;;;;;;24.67;12.63;;;;;;;18.36;60.62;100049.25;5097408;28;20345;-63
2024/03/30 06:18:03;;;;;;;20.98;9.90;;;;;;;18.45;59.84;100056.91;5099634;28;20058;-63
2024/03/30 06:20:29;;;;;;;19.88;9.40;;;;;;;18.55;59.84;100051.13;5098484;28;20087;-63
2024/03/30 06:22:54;;;;;;;16.05;7.70;;;;;;;18.73;58.88;100055.91;5098775;28;20260;-63
2024/03/30 06:25:20;;;;;;;15.82;6.43;;;;;;;18.69;58.47;100054.66;5097862;28;20062;-63
2024/03/30 06:27:45;;;;;;;12.95;6.63;;;;;;;18.65;58.24;100051.56;5098526;28;20348;-63
2024/03/30 06:30:12;;;;;;;12.63;7.28;;;;;;;18.73;57.73;100047.88;5097365;28;20047;-65
2024/03/30 06:32:37;;;;;;;13.18;6.95;;;;;;;18.87;55.77;100046.81;5098593;28;20028;-65
2024/03/30 06:35:03;;;;;;;13.65;7.28;;;;;;;18.96;55.33;100042.88;5099712;28;20044;-63
2024/03/30 06:37:28;;;;;;;8.85;6.78;;;;;;;18.97;55.11;100047.22;5098259;28;20338;-63
2024/03/30 06:45:22;;;;;;;14.65;6.70;;;;;;;19.22;53.71;100058.09;5099140;28;20233;-63
2024/03/30 06:47:47;;;;;;;10.48;6.40;;;;;;;19.12;54.79;100055.03;5098940;28;20032;-62
2024/03/30 06:50:13;;;;;;;10.88;6.03;;;;;;;19.11;54.76;100050.69;5096559;28;20040;-63
2024/03/30 06:52:38;;;;;;;14.55;6.82;;;;;;;19.29;54.25;100055.41;5078554;28;20044;-63
2024/03/30 06:55:04;;;;;;;15.68;9.85;;;;;;;19.48;53.76;100059.06;5080486;28;20052;-63
2024/03/30 06:57:30;;;;;;;14.57;7.38;;;;;;;19.67;53.39;100060.88;5078335;28;20049;-64
2024/03/30 06:59:55;;;;;;;12.60;8.23;;;;;;;19.85;53.15;100061.03;5080716;28;20101;-63
2024/03/30 07:02:21;;;;;;;12.60;8.23;;;;;;;19.99;53.16;100057.22;5083313;28;20264;-63
2024/03/30 07:04:46;;;;;;;15.70;7.30;;;;;;;20.24;52.71;100057.28;5079083;28;20032;-63
2024/03/30 07:07:12;;;;;;;13.65;7.65;;;;;;;20.47;52.32;100058.59;5082921;28;20052;-65
2024/03/30 07:09:37;;;;;;;10.85;7.00;;;;;;;20.55;51.87;100055.63;5082229;28;20074;-66
2024/03/30 07:12:03;;;;;;;22.15;14.52;;;;;;;20.55;51.12;100047.56;5077803;28;20086;-63
2024/03/30 07:14:28;;;;;;;12.27;6.93;;;;;;;20.50;51.44;100053.59;5077982;28;20226;-63
2024/03/30 07:16:55;;;;;;;11.98;5.68;;;;;;;20.62;50.32;100051.84;5078438;28;20043;-63
2024/03/30 07:19:21;;;;;;;14.40;6.22;;;;;;;20.88;50.09;100061.56;5079320;28;20078;-63
2024/03/30 07:21:46;;;;;;;16.45;6.20;;;;;;;20.91;51.87;100058.44;5095277;28;20286;-64
2024/03/30 07:24:12;;;;;;;11.60;5.65;;;;;;;21.11;52.88;100063.63;5099908;28;20032;-63
2024/03/30 07:26:37;;;;;;;11.75;5.90;;;;;;;21.18;54.39;100064.38;5082461;28;20036;-64
2024/03/30 07:29:04;;;;;;;10.13;4.93;;;;;;;21.14;55.37;100065.88;5078179;28;20334;-63
2024/03/30 07:31:29;;;;;;;11.65;5.15;;;;;;;21.12;57.10;100065.28;5089446;28;20051;-63
2024/03/30 07:33:55;;;;;;;8.15;4.53;;;;;;;21.19;56.02;100066.03;5099139;28;20388;-63
2024/03/30 07:36:20;;;;;;;8.18;4.53;;;;;;;21.20;56.00;100064.16;5098332;28;20059;-63
2024/03/30 07:38:46;;;;;;;8.63;4.70;;;;;;;21.40;55.04;100063.97;5098155;28;20031;-63
2024/03/30 07:41:11;;;;;;;10.13;4.82;;;;;;;21.50;54.61;100064.25;5098297;28;20032;-63
2024/03/30 07:43:37;;;;;;;8.60;5.03;;;;;;;21.52;55.10;100062.16;5098305;28;20074;-63
2024/03/30 07:46:03;;;;;;;10.40;4.05;;;;;;;21.54;53.99;100060.06;5095391;28;20036;-65
2024/03/30 07:48:28;;;;;;;8.55;4.07;;;;;;;21.55;53.47;100061.72;5077260;28;20032;-63
2024/03/30 07:50:54;;;;;;;7.70;3.95;;;;;;;21.73;51.29;100055.47;5080826;28;20032;-63
2024/03/30 07:53:19;;;;;;;14.65;5.30;;;;;;;21.83;54.46;100051.19;5091162;28;20040;-63
2024/03/30 07:55:45;;;;;;;13.23;5.63;;;;;;;22.04;54.11;100052.63;5098032;28;20377;-63
2024/03/30 07:58:11;;;;;;;8.65;4.70;;;;;;;21.80;54.67;100048.94;5095201;28;20038;-63
2024/03/30 08:00:36;;;;;;;11.00;6.03;;;;;;;21.83;53.02;100056.59;5098518;28;20325;-63
2024/03/30 08:03:02;;;;;;;10.77;5.20;;;;;;;22.02;53.75;100051.19;5083899;28;20028;-63
2024/03/30 08:05:31;;;;;;;9.60;5.38;;;;;;;21.92;52.24;100049.03;5076653;28;20349;-63
2024/03/30 08:07:57;;;;;;;11.07;5.75;;;;;;;21.68;53.63;100051.59;5075794;28;20039;-63
2024/03/30 08:10:23;;;;;;;14.48;5.40;;;;;;;21.73;55.50;100055.47;5078232;28;20044;-63
2024/03/30 08:12:49;;;;;;;10.10;4.90;;;;;;;21.67;56.90;100054.53;5077859;28;20313;-63
2024/03/30 08:15:15;;;;;;;10.02;4.78;;;;;;;21.73;54.96;100050.91;5077596;28;20107;-63
2024/03/30 08:17:41;;;;;;;12.30;5.22;;;;;;;22.04;55.31;100052.63;5077400;28;20032;-63
2024/03/30 08:20:08;;;;;;;8.30;4.50;;;;;;;22.01;54.29;100050.34;5077422;28;20226;-63
2024/03/30 08:22:35;;;;;;;8.45;4.68;;;;;;;22.21;53.08;100045.53;5077678;28;20033;-66
2024/03/30 08:25:00;;;;;;;11.52;4.43;;;;;;;22.27;53.00;100041.91;5077815;28;20043;-63
2024/03/30 08:27:25;;;;;;;12.18;4.82;;;;;;;22.41;50.00;100037.13;5077645;28;20032;-63
2024/03/30 08:29:51;;;;;;;8.23;3.83;;;;;;;22.36;49.98;100036.19;5075769;28;20322;-63
2024/03/30 08:32:16;;;;;;;9.82;3.88;;;;;;;22.58;52.63;100032.69;5078260;28;20343;-63
2024/03/30 08:34:42;;;;;;;10.70;3.88;;;;;;;22.56;51.15;100032.09;5076917;28;20045;-64
2024/03/30 08:37:07;;;;;;;10.02;3.70;;;;;;;22.76;51.11;100026.34;5078066;28;20059;-64
2024/03/30 08:39:33;;;;;;;10.63;4.20;;;;;;;22.77;50.11;100030.69;5076680;28;20356;-63
2024/03/30 08:41:58;;;;;;;10.25;3.53;;;;;;;22.81;51.24;100028.38;5077617;28;20044;-63
2024/03/30 08:44:24;;;;;;;10.55;3.80;;;;;;;22.75;48.17;100023.88;5077591;28;20044;-62
2024/03/30 08:46:49;;;;;;;6.38;3.25;;;;;;;22.78;49.43;100021.53;5077380;28;20086;-62
2024/03/30 08:49:15;;;;;;;9.07;4.13;;;;;;;22.85;49.79;100019.56;5077499;28;20048;-62
2024/03/30 08:51:40;;;;;;;8.13;3.35;;;;;;;22.98;49.71;100013.13;5076694;28;20036;-63
2024/03/30 08:54:06;;;;;;;10.23;4.53;;;;;;;23.16;49.55;100004.06;5082275;28;20039;-63
2024/03/30 08:56:33;;;;;;;7.75;3.55;;;;;;;23.21;47.05;100005.00;5097124;28;20035;-63
2024/03/30 08:58:58;;;;;;;9.32;3.85;;;;;;;23.18;46.52;100002.78;5095284;28;20099;-62
2024/03/30 09:01:24;;;;;;;11.15;3.67;;;;;;;23.28;47.68;99994.06;5076090;28;20036;-66
2024/03/30 09:03:50;;;;;;;7.38;2.67;;;;;;;23.42;45.14;100000.84;5077989;28;20210;-63
2024/03/30 09:06:16;;;;;;;8.30;3.50;;;;;;;23.33;45.53;99990.63;5096207;28;20092;-62
2024/03/30 09:08:42;;;;;;;10.65;3.00;;;;;;;23.30;45.41;99996.53;5098207;28;20244;-63
2024/03/30 09:11:08;;;;;;;9.35;3.80;;;;;;;23.01;44.47;99990.25;5079576;28;20419;-63
2024/03/30 09:13:33;;;;;;;8.45;3.22;;;;;;;23.13;45.18;99983.75;5078020;28;20056;-64
2024/03/30 09:15:59;;;;;;;5.65;2.28;;;;;;;23.18;43.95;99983.03;5076972;28;20045;-63
2024/03/30 09:18:24;;;;;;;10.65;4.45;;;;;;;23.25;43.01;99971.03;5077686;28;20051;-63
2024/03/30 09:20:50;;;;;;;12.20;4.30;;;;;;;23.25;42.02;99968.34;5075205;28;20044;-63
2024/03/30 09:23:16;;;;;;;7.78;3.22;;;;;;;23.25;41.07;99967.53;5076462;28;20036;-63
2024/03/30 09:25:41;;;;;;;9.93;2.90;;;;;;;23.22;41.73;99966.13;5076267;28;20281;-64
2024/03/30 09:28:07;;;;;;;8.80;3.55;;;;;;;23.12;42.55;99965.91;5076282;28;20036;-63
2024/03/30 09:30:32;;;;;;;7.50;2.75;;;;;;;23.16;43.71;99963.56;5081406;28;20044;-64
2024/03/30 09:32:58;;;;;;;9.02;6.47;;;;;;;23.06;43.28;99964.16;5096396;28;20034;-64
2024/03/30 09:35:23;;;;;;;7.90;3.33;;;;;;;23.17;43.75;99968.72;5097281;28;20322;-64
2024/03/30 09:37:49;;;;;;;8.25;3.20;;;;;;;23.21;42.79;99963.66;5096969;28;20032;-65
2024/03/30 09:40:14;;;;;;;6.90;2.90;;;;;;;23.00;42.75;99953.50;5097127;28;20052;-64
2024/03/30 09:42:40;;;;;;;6.35;2.85;;;;;;;22.89;41.52;99957.84;5077024;28;20044;-62
2024/03/30 09:45:10;;;;;;;9.52;3.00;;;;;;;22.84;42.36;99944.22;5078039;28;20324;-63
2024/03/30 09:47:39;;;;;;;8.75;2.95;;;;;;;22.71;42.72;99947.13;5095612;28;20028;-62
2024/03/30 09:50:07;;;;;;;8.32;2.50;;;;;;;22.74;43.71;99942.09;5101339;28;20116;-63
2024/03/30 09:52:33;;;;;;;6.45;2.67;;;;;;;22.66;42.52;99939.75;5085689;28;20036;-63
2024/03/30 09:55:04;;;;;;;3.88;2.25;;;;;;;22.59;41.79;99936.34;5080950;28;20043;-63
2024/03/30 09:57:32;;;;;;;8.40;4.20;;;;;;;22.63;43.07;99930.25;5080154;28;20040;-64
2024/03/30 09:59:59;;;;;;;5.30;2.58;;;;;;;22.63;44.32;99924.03;5080508;28;20043;-63
2024/03/30 10:02:25;;;;;;;10.77;2.75;;;;;;;22.67;43.97;99918.97;5079803;28;20119;-63
2024/03/30 10:04:50;;;;;;;11.15;3.10;;;;;;;22.61;42.96;99918.03;5080190;28;20330;-62
2024/03/30 10:07:22;;;;;;;6.03;3.30;;;;;;;22.66;44.40;99910.06;5085979;28;20268;-62
2024/03/30 10:09:49;;;;;;;6.72;3.67;;;;;;;22.74;40.97;99915.09;5100122;28;20048;-63
2024/03/30 10:12:26;;;;;;;6.80;2.90;;;;;;;22.62;42.83;99914.28;5099967;28;20036;-62
2024/03/30 10:14:54;;;;;;;6.50;2.40;;;;;;;22.62;43.47;99903.50;5100189;28;20058;-66
2024/03/30 10:17:19;;;;;;;7.47;3.28;;;;;;;22.68;43.11;99905.25;5096532;28;20162;-66
2024/03/30 10:19:46;;;;;;;8.43;3.22;;;;;;;22.58;44.25;99894.22;5079076;28;20040;-64
2024/03/30 10:22:12;;;;;;;4.60;2.88;;;;;;;22.67;44.30;99900.09;5080623;28;20032;-64
2024/03/30 10:24:38;;;;;;;5.43;2.75;;;;;;;22.74;45.02;99896.19;5100072;28;20046;-64
2024/03/30 10:27:04;;;;;;;6.30;2.75;;;;;;;22.71;44.25;99898.56;5100898;28;20299;-64
2024/03/30 10:29:30;;;;;;;5.07;2.50;;;;;;;22.71;43.73;99895.84;5080862;28;20223;-64
2024/03/30 10:31:55;;;;;;;5.70;2.40;;;;;;;22.77;42.91;99886.81;5080003;28;20043;-63
2024/03/30 10:34:21;;;;;;;8.68;2.83;;;;;;;22.69;43.09;99874.50;5079725;28;20048;-63
2024/03/30 10:36:48;;;;;;;6.85;3.22;;;;;;;22.70;44.60;99883.41;5080036;28;20036;-63
2024/03/30 10:39:18;;;;;;;6.18;2.65;;;;;;;22.81;43.32;99871.81;5078746;28;20059;-64
2024/03/30 10:41:44;;;;;;;7.57;2.75;;;;;;;22.84;42.72;99857.81;5079426;28;20068;-63
2024/03/30 10:44:09;;;;;;;6.18;1.83;;;;;;;22.69;41.11;99858.28;5089907;28;20032;-63
2024/03/30 10:46:36;;;;;;;8.25;2.40;;;;;;;22.70;40.81;99856.41;5099442;28;20046;-64
2024/03/30 10:49:01;;;;;;;8.95;3.10;;;;;;;22.62;41.44;99850.34;5092244;28;20032;-63
2024/03/30 10:51:28;;;;;;;5.82;2.13;;;;;;;22.70;42.36;99846.44;5078364;28;20098;-63
2024/03/30 10:54:04;;;;;;;6.18;2.03;;;;;;;22.80;43.76;99854.78;5079128;28;20047;-66
2024/03/30 10:56:29;;;;;;;7.30;2.13;;;;;;;22.86;41.80;99848.44;5077995;28;20330;-63
2024/03/30 10:59:00;;;;;;;5.63;2.00;;;;;;;22.98;42.40;99834.09;5079545;28;20035;-63
2024/03/30 11:01:26;;;;;;;4.55;2.42;;;;;;;22.92;41.45;99828.59;5078247;28;20318;-64
2024/03/30 11:03:53;;;;;;;7.72;3.30;;;;;;;23.00;43.45;99832.78;5079337;28;20060;-64
2024/03/30 11:06:20;;;;;;;9.60;3.55;;;;;;;22.88;42.92;99813.09;5078652;28;20041;-64
2024/03/30 11:08:47;;;;;;;8.95;3.13;;;;;;;23.14;42.94;99825.22;5079859;28;20039;-63
2024/03/30 11:11:13;;;;;;;10.57;4.22;;;;;;;23.00;43.77;99815.78;5077803;28;20074;-64
2024/03/30 11:13:38;;;;;;;9.82;4.13;;;;;;;23.12;45.20;99817.34;5083851;28;20044;-63
2024/03/30 11:16:08;;;;;;;12.20;4.90;;;;;;;23.16;44.95;99815.81;5097324;28;20357;-63
2024/03/30 11:18:54;;;;;;;9.95;4.70;;;;;;;23.08;43.05;99802.69;5098712;28;20306;-63
2024/03/30 11:21:26;;;;;;;9.57;5.05;;;;;;;23.15;42.73;99803.38;5096430;28;20326;-63
2024/03/30 11:23:58;;;;;;;11.50;5.03;;;;;;;23.30;41.11;99799.28;5099268;28;20107;-64
2024/03/30 11:26:26;;;;;;;10.20;2.92;;;;;;;23.39;42.69;99798.66;5097473;28;20142;-64
2024/03/30 11:29:07;;;;;;;11.35;3.53;;;;;;;23.37;43.69;99798.06;5098321;28;20028;-63